Terminal Aerodrome Forecast
Issued by NWS Grand Forks, ND

Home | Current Version | Previous Version | Graphics & Text | Print | Product List | Glossary On
Versions: 1 2 3 4 5 6 7 8 9 10 11 12 13 14 15 16 17
000
FTUS43 KFGF 282018 AAA
TAFFAR
TAF AMD
KFAR 282018Z 2820/0118 35015KT P6SM BKN015
      TEMPO 2820/2822 SCT015
     FM282200 36014KT P6SM BKN050
     FM010200 36009KT P6SM BKN015
     FM011200 34012KT P6SM BKN030=

USA.gov is the U.S. government's official web portal to all federal, state and local government web resources and services.